Time;durP1;ratioP1;P1;durP2;ratioP2;P2;SDS_P1;SDS_P2;PMS_P1;PMS_P2;Temp;Humidity;BMP_temperature;BMP_pressure;BME280_temperature;BME280_humidity;BME280_pressure;Samples;Min_cycle;Max_cycle;Signal;HPM_P1;HPM_P2
2023/04/08 00:00:09;;;;;;;10.07;7.73;;;;;;;;;;5095109;28;20626;-85
2023/04/08 00:02:37;;;;;;;13.23;8.17;;;;;;;;;;5094893;28;20762;-85
2023/04/08 00:05:04;;;;;;;16.47;8.87;;;;;;;;;;5094810;28;20423;-85
2023/04/08 00:07:31;;;;;;;11.93;8.27;;;;;;;;;;5094498;28;20285;-85
2023/04/08 00:09:58;;;;;;;14.30;8.90;;;;;;;;;;5094890;28;20292;-85
2023/04/08 00:12:27;;;;;;;13.83;8.17;;;;;;;;;;5095850;28;20199;-85
2023/04/08 00:14:54;;;;;;;13.20;8.40;;;;;;;;;;5115426;28;20201;-84
2023/04/08 00:17:21;;;;;;;10.70;8.17;;;;;;;;;;5115124;28;20292;-84
2023/04/08 00:19:48;;;;;;;11.43;8.50;;;;;;;;;;5115128;28;20284;-85
2023/04/08 00:22:16;;;;;;;12.33;8.37;;;;;;;;;;5114726;28;20200;-84
2023/04/08 00:24:43;;;;;;;12.20;8.03;;;;;;;;;;5114072;28;20266;-84
2023/04/08 00:27:10;;;;;;;11.33;8.47;;;;;;;;;;5113977;28;20286;-85
2023/04/08 00:29:39;;;;;;;16.77;9.23;;;;;;;;;;5114481;28;20600;-84
2023/04/08 00:32:06;;;;;;;9.87;8.20;;;;;;;;;;5114709;28;20252;-85
2023/04/08 00:34:33;;;;;;;11.40;9.03;;;;;;;;;;5114451;28;20200;-85
2023/04/08 00:37:01;;;;;;;14.23;9.40;;;;;;;;;;5114908;28;20278;-84
2023/04/08 00:39:28;;;;;;;14.40;8.87;;;;;;;;;;5114711;28;20208;-85
2023/04/08 00:41:56;;;;;;;11.53;9.00;;;;;;;;;;5113833;28;20318;-85
2023/04/08 00:44:23;;;;;;;11.80;8.77;;;;;;;;;;5114016;28;20260;-85
2023/04/08 00:46:52;;;;;;;14.57;9.03;;;;;;;;;;5114460;28;20294;-85
2023/04/08 00:49:19;;;;;;;15.13;9.27;;;;;;;;;;5114547;28;20291;-83
2023/04/08 00:51:46;;;;;;;12.17;8.47;;;;;;;;;;5114590;28;20232;-84
2023/04/08 00:54:13;;;;;;;15.30;9.30;;;;;;;;;;5114109;28;20286;-85
2023/04/08 00:56:40;;;;;;;11.83;8.80;;;;;;;;;;5113783;28;20231;-84
2023/04/08 00:59:07;;;;;;;12.53;8.40;;;;;;;;;;5114286;28;20283;-84
2023/04/08 01:01:37;;;;;;;13.47;8.77;;;;;;;;;;5115474;28;20639;-85
2023/04/08 01:04:09;;;;;;;11.90;8.83;;;;;;;;;;5113831;28;20841;-85
2023/04/08 01:06:41;;;;;;;12.90;8.83;;;;;;;;;;5113708;28;20184;-84
2023/04/08 01:09:09;;;;;;;14.10;8.83;;;;;;;;;;5114007;28;20202;-85
2023/04/08 01:11:38;;;;;;;14.87;9.30;;;;;;;;;;5113522;28;20264;-85
2023/04/08 01:14:09;;;;;;;13.73;9.30;;;;;;;;;;5113766;28;20224;-85
2023/04/08 01:16:37;;;;;;;15.33;9.23;;;;;;;;;;5113926;28;20211;-85
2023/04/08 01:19:06;;;;;;;12.03;8.80;;;;;;;;;;5114141;28;20281;-84
2023/04/08 01:21:36;;;;;;;13.03;9.10;;;;;;;;;;5113844;28;20225;-84
2023/04/08 01:24:07;;;;;;;12.07;8.80;;;;;;;;;;5113572;28;20195;-84
2023/04/08 01:26:36;;;;;;;12.87;9.17;;;;;;;;;;5112919;28;20203;-83
2023/04/08 01:29:03;;;;;;;11.77;9.40;;;;;;;;;;5113537;28;20299;-83
2023/04/08 01:31:31;;;;;;;11.93;9.37;;;;;;;;;;5113397;28;20282;-84
2023/04/08 01:33:59;;;;;;;15.10;9.33;;;;;;;;;;5113626;28;20196;-83
2023/04/08 01:36:27;;;;;;;12.93;9.40;;;;;;;;;;5113192;28;20204;-84
2023/04/08 01:38:54;;;;;;;13.50;9.00;;;;;;;;;;5112711;28;20231;-84
2023/04/08 01:41:21;;;;;;;11.70;8.60;;;;;;;;;;5112453;28;20252;-84
2023/04/08 01:43:50;;;;;;;9.93;8.10;;;;;;;;;;5112635;28;20295;-84
2023/04/08 01:46:18;;;;;;;11.00;8.20;;;;;;;;;;5112736;28;20266;-84
2023/04/08 01:48:45;;;;;;;10.97;8.37;;;;;;;;;;5112938;27;20287;-83
2023/04/08 01:51:13;;;;;;;14.13;8.07;;;;;;;;;;5112963;28;20191;-84
2023/04/08 01:53:40;;;;;;;9.27;7.97;;;;;;;;;;5112466;28;20662;-85
2023/04/08 01:56:09;;;;;;;13.07;8.30;;;;;;;;;;5112956;28;20231;-84
2023/04/08 01:58:39;;;;;;;10.67;7.83;;;;;;;;;;5113007;28;20203;-83
2023/04/08 02:01:11;;;;;;;11.20;8.23;;;;;;;;;;5113417;28;20188;-84
2023/04/08 02:03:38;;;;;;;10.67;7.90;;;;;;;;;;5112941;28;20226;-84
2023/04/08 02:06:06;;;;;;;10.83;8.13;;;;;;;;;;5112603;28;20227;-84
2023/04/08 02:08:35;;;;;;;9.97;8.13;;;;;;;;;;5112009;28;20194;-85
2023/04/08 02:11:02;;;;;;;11.43;8.07;;;;;;;;;;5112399;28;20192;-84
2023/04/08 02:13:30;;;;;;;11.97;8.23;;;;;;;;;;5112203;28;20229;-85
2023/04/08 02:15:58;;;;;;;16.07;8.53;;;;;;;;;;5105474;28;20199;-84
2023/04/08 02:18:27;;;;;;;11.00;8.27;;;;;;;;;;5100377;28;20302;-82
2023/04/08 02:20:58;;;;;;;10.70;7.83;;;;;;;;;;5091637;28;20290;-84
2023/04/08 02:23:26;;;;;;;10.07;8.03;;;;;;;;;;5091700;28;20226;-84
2023/04/08 02:25:54;;;;;;;9.57;7.53;;;;;;;;;;5095368;28;20223;-84
2023/04/08 02:28:21;;;;;;;10.83;7.80;;;;;;;;;;5112685;28;20252;-84
2023/04/08 02:30:49;;;;;;;10.87;7.77;;;;;;;;;;5111966;28;20567;-84
2023/04/08 02:33:18;;;;;;;10.40;7.33;;;;;;;;;;5112158;28;20195;-84
2023/04/08 02:35:48;;;;;;;12.60;7.63;;;;;;;;;;5112356;28;20192;-84
2023/04/08 02:38:15;;;;;;;9.20;7.07;;;;;;;;;;5112095;28;20223;-84
2023/04/08 02:40:42;;;;;;;9.20;6.67;;;;;;;;;;5112116;28;20316;-84
2023/04/08 02:43:10;;;;;;;8.57;6.87;;;;;;;;;;5112125;28;20216;-84
2023/04/08 02:45:39;;;;;;;10.57;6.97;;;;;;;;;;5111875;28;20318;-83
2023/04/08 02:48:07;;;;;;;13.63;7.23;;;;;;;;;;5111962;28;20235;-83
2023/04/08 02:50:34;;;;;;;9.97;6.60;;;;;;;;;;5112152;28;20628;-84
2023/04/08 02:53:02;;;;;;;8.57;6.50;;;;;;;;;;5112041;28;20232;-84
2023/04/08 02:55:30;;;;;;;8.40;7.03;;;;;;;;;;5112207;28;20634;-84
2023/04/08 02:57:57;;;;;;;8.73;6.90;;;;;;;;;;5112065;28;20870;-84
2023/04/08 03:00:24;;;;;;;9.70;6.73;;;;;;;;;;5111939;28;20195;-85
2023/04/08 03:02:51;;;;;;;10.30;6.57;;;;;;;;;;5112083;28;20201;-83
2023/04/08 03:05:18;;;;;;;7.67;6.23;;;;;;;;;;5111843;28;20223;-84
2023/04/08 03:07:45;;;;;;;11.40;6.40;;;;;;;;;;5111478;28;20277;-83
2023/04/08 03:10:14;;;;;;;9.17;6.80;;;;;;;;;;5111664;28;20286;-84
2023/04/08 03:12:41;;;;;;;8.43;6.53;;;;;;;;;;5111601;28;20190;-84
2023/04/08 03:15:09;;;;;;;8.73;6.80;;;;;;;;;;5112022;28;20203;-83
2023/04/08 03:17:36;;;;;;;9.77;6.83;;;;;;;;;;5111778;28;20291;-85
2023/04/08 03:20:04;;;;;;;7.53;6.47;;;;;;;;;;5111391;28;20191;-84
2023/04/08 03:22:32;;;;;;;7.73;6.17;;;;;;;;;;5111713;28;20192;-83
2023/04/08 03:24:59;;;;;;;9.77;6.90;;;;;;;;;;5116310;28;20642;-82
2023/04/08 03:27:27;;;;;;;9.77;6.20;;;;;;;;;;5115308;28;20303;-82
2023/04/08 03:29:56;;;;;;;8.70;6.77;;;;;;;;;;5115750;28;20202;-83
2023/04/08 03:32:23;;;;;;;8.67;6.33;;;;;;;;;;5115656;28;20194;-83
2023/04/08 03:34:50;;;;;;;9.27;6.50;;;;;;;;;;5115217;28;20233;-84
2023/04/08 03:37:18;;;;;;;12.33;7.10;;;;;;;;;;5115409;28;20197;-84
2023/04/08 03:39:45;;;;;;;9.37;6.33;;;;;;;;;;5115617;28;20290;-84
2023/04/08 03:42:12;;;;;;;9.40;6.67;;;;;;;;;;5115802;28;20313;-83
2023/04/08 03:44:41;;;;;;;9.17;6.40;;;;;;;;;;5115277;28;20276;-83
2023/04/08 03:47:08;;;;;;;7.60;6.73;;;;;;;;;;5114957;28;20258;-83
2023/04/08 03:49:35;;;;;;;10.37;7.17;;;;;;;;;;5114961;28;20294;-83
2023/04/08 03:52:02;;;;;;;8.97;6.90;;;;;;;;;;5114853;27;20196;-84
2023/04/08 03:54:29;;;;;;;10.57;7.43;;;;;;;;;;5114804;28;20623;-84
2023/04/08 03:56:57;;;;;;;9.27;6.60;;;;;;;;;;5115404;28;20277;-84
2023/04/08 03:59:24;;;;;;;8.63;6.33;;;;;;;;;;5115266;28;20287;-84
2023/04/08 04:01:52;;;;;;;8.33;7.00;;;;;;;;;;5114886;28;20297;-84
2023/04/08 04:04:19;;;;;;;10.30;6.90;;;;;;;;;;5114908;28;20299;-84
2023/04/08 04:06:47;;;;;;;9.57;7.00;;;;;;;;;;5115016;28;20271;-83
2023/04/08 04:09:15;;;;;;;10.30;7.07;;;;;;;;;;5114836;28;20635;-84
2023/04/08 04:11:42;;;;;;;13.03;7.50;;;;;;;;;;5114653;28;20312;-84
2023/04/08 04:14:09;;;;;;;11.33;7.30;;;;;;;;;;5114840;28;20290;-84
2023/04/08 04:16:37;;;;;;;8.67;6.97;;;;;;;;;;5114371;28;20198;-83
2023/04/08 04:19:05;;;;;;;11.37;7.37;;;;;;;;;;5113935;28;20778;-84
2023/04/08 04:21:32;;;;;;;11.67;7.33;;;;;;;;;;5114505;28;20591;-83
2023/04/08 04:23:59;;;;;;;12.83;7.57;;;;;;;;;;5113976;28;20261;-84
2023/04/08 04:26:27;;;;;;;12.73;8.07;;;;;;;;;;5113887;28;20323;-83
2023/04/08 04:28:54;;;;;;;10.13;7.23;;;;;;;;;;5114136;28;20289;-82
2023/04/08 04:31:21;;;;;;;11.10;7.27;;;;;;;;;;5114337;28;20240;-84
2023/04/08 04:33:48;;;;;;;11.20;7.60;;;;;;;;;;5113444;28;20224;-83
2023/04/08 04:36:17;;;;;;;14.40;7.73;;;;;;;;;;5114396;28;20289;-82
2023/04/08 04:38:44;;;;;;;9.57;7.27;;;;;;;;;;5114205;28;20194;-83
2023/04/08 04:41:11;;;;;;;10.60;8.13;;;;;;;;;;5114114;28;20748;-84
2023/04/08 04:43:38;;;;;;;11.90;8.00;;;;;;;;;;5114246;28;20201;-84
2023/04/08 04:46:07;;;;;;;11.13;8.03;;;;;;;;;;5113806;28;20218;-83
2023/04/08 04:48:35;;;;;;;11.17;7.53;;;;;;;;;;5113614;28;20225;-83
2023/04/08 04:51:02;;;;;;;11.30;8.00;;;;;;;;;;5113946;28;20296;-84
2023/04/08 04:53:31;;;;;;;10.30;7.00;;;;;;;;;;5113864;28;20568;-84
2023/04/08 04:56:00;;;;;;;10.77;8.33;;;;;;;;;;5114153;28;20774;-84
2023/04/08 04:58:27;;;;;;;9.13;7.33;;;;;;;;;;5113922;28;20223;-83
2023/04/08 05:00:54;;;;;;;9.87;7.67;;;;;;;;;;5113854;28;20293;-84
2023/04/08 05:03:22;;;;;;;10.63;7.77;;;;;;;;;;5113335;28;20198;-83
2023/04/08 05:05:51;;;;;;;10.47;8.20;;;;;;;;;;5113961;28;20316;-84
2023/04/08 05:08:18;;;;;;;11.93;8.10;;;;;;;;;;5113352;28;20195;-83
2023/04/08 05:10:48;;;;;;;13.27;8.43;;;;;;;;;;5113745;28;20217;-82
2023/04/08 05:13:16;;;;;;;11.70;8.70;;;;;;;;;;5113693;28;20674;-83
2023/04/08 05:15:44;;;;;;;10.37;7.93;;;;;;;;;;5113225;28;20198;-84
2023/04/08 05:18:11;;;;;;;12.57;8.67;;;;;;;;;;5113107;28;20198;-83
2023/04/08 05:20:39;;;;;;;13.67;8.20;;;;;;;;;;5113416;28;20562;-84
2023/04/08 05:23:06;;;;;;;12.33;8.90;;;;;;;;;;5113430;28;20208;-84
2023/04/08 05:25:33;;;;;;;11.50;8.57;;;;;;;;;;5113248;28;20198;-83
2023/04/08 05:28:02;;;;;;;13.87;9.03;;;;;;;;;;5113204;28;20269;-83
2023/04/08 05:30:29;;;;;;;12.83;9.03;;;;;;;;;;5113399;28;20305;-83
2023/04/08 05:32:56;;;;;;;15.63;9.13;;;;;;;;;;5112886;28;20191;-84
2023/04/08 05:35:24;;;;;;;12.23;8.07;;;;;;;;;;5113301;28;20286;-84
2023/04/08 05:37:51;;;;;;;13.43;9.70;;;;;;;;;;5113623;28;20222;-83
2023/04/08 05:40:18;;;;;;;12.93;8.77;;;;;;;;;;5113055;28;20636;-84
2023/04/08 05:42:45;;;;;;;16.97;11.20;;;;;;;;;;5113303;28;20225;-83
2023/04/08 05:45:15;;;;;;;13.77;10.23;;;;;;;;;;5113012;28;20194;-84
2023/04/08 05:47:42;;;;;;;12.30;9.13;;;;;;;;;;5112638;28;20239;-82
2023/04/08 05:50:10;;;;;;;15.33;9.73;;;;;;;;;;5112800;28;20294;-83
2023/04/08 05:52:37;;;;;;;12.80;9.13;;;;;;;;;;5113098;28;20247;-83
2023/04/08 05:55:04;;;;;;;13.43;8.90;;;;;;;;;;5113129;28;20197;-83
2023/04/08 05:57:31;;;;;;;14.60;9.53;;;;;;;;;;5113155;28;20202;-83
2023/04/08 05:59:59;;;;;;;15.10;9.60;;;;;;;;;;5112550;28;20296;-83
2023/04/08 06:02:27;;;;;;;13.70;9.77;;;;;;;;;;5112199;28;20198;-83
2023/04/08 06:04:55;;;;;;;13.13;9.20;;;;;;;;;;5112935;28;20292;-83
2023/04/08 06:07:22;;;;;;;13.67;8.93;;;;;;;;;;5112939;28;20338;-83
2023/04/08 06:09:49;;;;;;;10.30;8.47;;;;;;;;;;5112597;28;20197;-83
2023/04/08 06:12:16;;;;;;;11.37;8.53;;;;;;;;;;5112708;28;20283;-84
2023/04/08 06:14:43;;;;;;;11.73;8.83;;;;;;;;;;5091639;28;20202;-83
2023/04/08 06:17:10;;;;;;;10.83;7.77;;;;;;;;;;5092359;28;20251;-84
2023/04/08 06:19:39;;;;;;;11.13;8.40;;;;;;;;;;5092503;28;20194;-83
2023/04/08 06:22:06;;;;;;;12.83;8.60;;;;;;;;;;5091996;28;20288;-83
2023/04/08 06:24:33;;;;;;;12.50;7.90;;;;;;;;;;5091764;28;20237;-83
2023/04/08 06:27:01;;;;;;;11.00;8.33;;;;;;;;;;5092015;28;20230;-84
2023/04/08 06:29:30;;;;;;;13.30;8.73;;;;;;;;;;5091381;28;20221;-83
2023/04/08 06:31:57;;;;;;;11.00;8.03;;;;;;;;;;5091853;28;20606;-83
2023/04/08 06:34:24;;;;;;;10.70;8.10;;;;;;;;;;5091169;28;20226;-83
2023/04/08 06:36:53;;;;;;;14.13;8.27;;;;;;;;;;5091606;28;20577;-83
2023/04/08 06:39:20;;;;;;;12.80;8.73;;;;;;;;;;5091855;28;20233;-83
2023/04/08 06:41:47;;;;;;;11.00;8.33;;;;;;;;;;5091402;28;20608;-84
2023/04/08 06:44:14;;;;;;;10.83;8.23;;;;;;;;;;5091299;28;20218;-83
2023/04/08 06:46:41;;;;;;;11.90;8.83;;;;;;;;;;5092107;28;20320;-84
2023/04/08 06:49:09;;;;;;;11.63;8.20;;;;;;;;;;5091726;28;20226;-84
2023/04/08 06:51:38;;;;;;;11.03;8.23;;;;;;;;;;5091655;28;20195;-83
2023/04/08 06:54:08;;;;;;;10.83;8.90;;;;;;;;;;5091582;28;20252;-82
2023/04/08 06:56:36;;;;;;;11.10;8.17;;;;;;;;;;5091377;28;20201;-82
2023/04/08 06:59:03;;;;;;;9.63;8.03;;;;;;;;;;5095284;28;20190;-83
2023/04/08 07:01:30;;;;;;;11.73;8.30;;;;;;;;;;5107973;28;20221;-82
2023/04/08 07:03:58;;;;;;;10.40;7.50;;;;;;;;;;5115701;28;20258;-83
2023/04/08 07:06:25;;;;;;;11.07;7.93;;;;;;;;;;5115918;28;20639;-82
2023/04/08 07:08:52;;;;;;;12.13;8.80;;;;;;;;;;5115730;28;20309;-81
2023/04/08 07:11:21;;;;;;;9.03;8.07;;;;;;;;;;5116113;28;20277;-82
2023/04/08 07:13:48;;;;;;;9.93;7.73;;;;;;;;;;5115120;28;20750;-83
2023/04/08 07:16:15;;;;;;;9.18;7.70;;;;;;;;;;5115630;28;20193;-83
2023/04/08 07:18:42;;;;;;;9.00;7.53;;;;;;;;;;5115299;28;20284;-83
2023/04/08 07:21:10;;;;;;;10.05;7.80;;;;;;;;;;5115579;28;20205;-83
2023/04/08 07:23:37;;;;;;;8.77;7.45;;;;;;;;;;5115475;28;20578;-83
2023/04/08 07:26:04;;;;;;;9.73;7.35;;;;;;;;;;5115182;28;20292;-82
2023/04/08 07:28:33;;;;;;;8.25;7.45;;;;;;;;;;5114548;28;20666;-81
2023/04/08 07:31:09;;;;;;;8.15;7.32;;;;;;;;;;5115115;28;20297;-82
2023/04/08 07:33:37;;;;;;;8.13;7.10;;;;;;;;;;5107769;28;20201;-82
2023/04/08 07:36:05;;;;;;;8.57;6.45;;;;;;;;;;5113342;27;20284;-81
2023/04/08 07:38:32;;;;;;;7.50;6.35;;;;;;;;;;5114071;28;20705;-81
2023/04/08 07:40:59;;;;;;;7.80;6.50;;;;;;;;;;5113094;27;20272;-81
2023/04/08 07:43:27;;;;;;;7.18;6.13;;;;;;;;;;5114469;28;20198;-82
2023/04/08 07:46:01;;;;;;;8.13;6.22;;;;;;;;;;5114968;28;20292;-80
2023/04/08 07:48:28;;;;;;;7.60;6.50;;;;;;;;;;5112988;28;20224;-83
2023/04/08 07:50:56;;;;;;;6.80;6.10;;;;;;;;;;5114541;28;20213;-83
2023/04/08 07:53:24;;;;;;;8.88;6.22;;;;;;;;;;5120392;27;20217;-83
2023/04/08 07:55:51;;;;;;;8.77;6.03;;;;;;;;;;5114632;28;20640;-83
2023/04/08 07:58:18;;;;;;;8.13;6.43;;;;;;;;;;5114634;28;20238;-85
2023/04/08 08:00:45;;;;;;;7.60;6.40;;;;;;;;;;5113435;28;20200;-85
2023/04/08 08:03:14;;;;;;;9.57;6.63;;;;;;;;;;5114585;28;20281;-81
2023/04/08 08:05:41;;;;;;;7.18;5.95;;;;;;;;;;5114530;28;20226;-84
2023/04/08 08:08:10;;;;;;;8.60;6.43;;;;;;;;;;5114933;28;20304;-81
2023/04/08 08:10:37;;;;;;;7.57;6.15;;;;;;;;;;5115723;28;20694;-81
2023/04/08 08:13:05;;;;;;;8.43;6.45;;;;;;;;;;5116233;28;20229;-81
2023/04/08 08:15:32;;;;;;;7.97;6.10;;;;;;;;;;5106474;28;20194;-80
2023/04/08 08:17:59;;;;;;;10.75;7.10;;;;;;;;;;5105939;28;20285;-82
2023/04/08 08:20:28;;;;;;;8.48;6.38;;;;;;;;;;5102754;28;20285;-83
2023/04/08 08:22:55;;;;;;;8.50;6.70;;;;;;;;;;5115299;28;20221;-82
2023/04/08 08:25:23;;;;;;;7.85;6.50;;;;;;;;;;5115701;28;20208;-80
2023/04/08 08:27:50;;;;;;;7.68;6.40;;;;;;;;;;5114067;28;20249;-79
2023/04/08 08:30:19;;;;;;;12.60;7.10;;;;;;;;;;5114649;28;20730;-79
2023/04/08 08:32:47;;;;;;;7.38;6.45;;;;;;;;;;5114888;28;20256;-79
2023/04/08 08:35:14;;;;;;;7.03;6.13;;;;;;;;;;5115426;28;20194;-79
2023/04/08 08:37:43;;;;;;;7.20;6.18;;;;;;;;;;5114932;28;20622;-79
2023/04/08 08:40:10;;;;;;;8.25;6.32;;;;;;;;;;5114394;28;20324;-81
2023/04/08 08:42:38;;;;;;;9.38;6.32;;;;;;;;;;5115196;28;20261;-81
2023/04/08 08:45:07;;;;;;;8.10;5.97;;;;;;;;;;5115361;28;20280;-82
2023/04/08 08:47:34;;;;;;;10.27;6.70;;;;;;;;;;5115601;28;20233;-82
2023/04/08 08:50:01;;;;;;;9.88;6.53;;;;;;;;;;5114885;28;20211;-82
2023/04/08 08:52:28;;;;;;;8.35;6.25;;;;;;;;;;5114852;28;20258;-81
2023/04/08 08:55:00;;;;;;;8.00;6.60;;;;;;;;;;5114130;28;20280;-81
2023/04/08 08:57:27;;;;;;;7.88;5.95;;;;;;;;;;5115012;28;20874;-81
2023/04/08 08:59:54;;;;;;;8.68;5.93;;;;;;;;;;5114650;28;20194;-80
2023/04/08 09:02:27;;;;;;;7.05;6.35;;;;;;;;;;5114349;28;20573;-80
2023/04/08 09:04:58;;;;;;;7.68;6.03;;;;;;;;;;5114677;27;20255;-79
2023/04/08 09:07:26;;;;;;;9.18;6.18;;;;;;;;;;5113369;28;20213;-81
2023/04/08 09:09:54;;;;;;;6.50;5.70;;;;;;;;;;5114276;28;20677;-80
2023/04/08 09:12:23;;;;;;;5.88;5.35;;;;;;;;;;5114104;28;20273;-81
2023/04/08 09:14:50;;;;;;;6.00;5.40;;;;;;;;;;5114458;28;20270;-78
2023/04/08 09:17:32;;;;;;;7.18;5.40;;;;;;;;;;5113794;28;20300;-79
2023/04/08 09:20:08;;;;;;;6.72;4.80;;;;;;;;;;5113330;28;20198;-79
2023/04/08 09:22:35;;;;;;;7.25;5.22;;;;;;;;;;5113465;28;20233;-80
2023/04/08 09:25:23;;;;;;;6.82;5.38;;;;;;;;;;5113887;28;20224;-82
2023/04/08 09:27:52;;;;;;;7.25;5.97;;;;;;;;;;5111211;28;20320;-82
2023/04/08 09:30:19;;;;;;;8.05;5.40;;;;;;;;;;5114520;27;20217;-81
2023/04/08 09:32:50;;;;;;;5.45;4.88;;;;;;;;;;5114551;27;20236;-83
2023/04/08 09:35:18;;;;;;;6.03;5.22;;;;;;;;;;5118546;27;20194;-81
2023/04/08 09:37:46;;;;;;;5.82;5.25;;;;;;;;;;5113509;28;20193;-80
2023/04/08 09:40:15;;;;;;;5.80;5.20;;;;;;;;;;5113783;28;20230;-80
2023/04/08 09:42:44;;;;;;;6.43;5.03;;;;;;;;;;5113717;28;20193;-81
2023/04/08 09:45:13;;;;;;;7.47;5.18;;;;;;;;;;5112830;28;20659;-81
2023/04/08 09:47:45;;;;;;;5.20;4.40;;;;;;;;;;5112759;28;20217;-82
2023/04/08 09:50:12;;;;;;;6.90;4.90;;;;;;;;;;5112295;28;20646;-82
2023/04/08 09:52:44;;;;;;;5.88;4.25;;;;;;;;;;5111943;28;20299;-81
2023/04/08 09:55:13;;;;;;;7.85;5.00;;;;;;;;;;5112290;28;20756;-80
2023/04/08 09:57:42;;;;;;;5.35;4.80;;;;;;;;;;5112512;28;20225;-82
2023/04/08 10:00:10;;;;;;;6.43;4.95;;;;;;;;;;5110969;28;20201;-80
2023/04/08 10:02:41;;;;;;;5.50;4.63;;;;;;;;;;5111545;27;20285;-80
2023/04/08 10:05:09;;;;;;;5.18;3.65;;;;;;;;;;5105392;28;20201;-81
2023/04/08 10:07:36;;;;;;;4.28;3.88;;;;;;;;;;5117265;27;20225;-81
2023/04/08 10:10:04;;;;;;;4.43;3.13;;;;;;;;;;5091638;28;20285;-81
2023/04/08 10:12:31;;;;;;;6.68;3.20;;;;;;;;;;5100702;28;20221;-81
2023/04/08 10:15:17;;;;;;;3.95;3.20;;;;;;;;;;5106518;28;20316;-81
2023/04/08 10:17:45;;;;;;;4.70;3.65;;;;;;;;;;5107991;28;20213;-81
2023/04/08 10:20:27;;;;;;;4.53;3.63;;;;;;;;;;5110892;28;20713;-87
2023/04/08 10:22:55;;;;;;;4.53;2.67;;;;;;;;;;5110092;28;20629;-84
2023/04/08 10:25:31;;;;;;;8.80;6.10;;;;;;;;;;5110644;28;20201;-84
2023/04/08 10:27:59;;;;;;;3.97;2.85;;;;;;;;;;5107983;28;20320;-85
2023/04/08 10:30:42;;;;;;;5.22;2.40;;;;;;;;;;5103524;28;20285;-81
2023/04/08 10:33:15;;;;;;;4.85;3.10;;;;;;;;;;5091725;28;20689;-82
2023/04/08 10:35:45;;;;;;;4.25;2.67;;;;;;;;;;5102670;28;20194;-82
2023/04/08 10:38:13;;;;;;;3.45;2.70;;;;;;;;;;5112377;28;20205;-80
2023/04/08 10:40:41;;;;;;;3.33;2.83;;;;;;;;;;5107627;28;20229;-79
2023/04/08 10:43:10;;;;;;;4.13;2.50;;;;;;;;;;5092474;28;20202;-79
2023/04/08 10:45:37;;;;;;;3.38;2.30;;;;;;;;;;5091917;28;20194;-79
2023/04/08 10:48:27;;;;;;;3.17;2.55;;;;;;;;;;5091636;28;20253;-80
2023/04/08 10:50:57;;;;;;;3.58;2.60;;;;;;;;;;5089548;28;20202;-79
2023/04/08 10:53:28;;;;;;;3.95;2.60;;;;;;;;;;5091634;28;20255;-80
2023/04/08 10:55:56;;;;;;;3.90;2.30;;;;;;;;;;5091332;28;20229;-79
2023/04/08 10:58:23;;;;;;;4.30;2.45;;;;;;;;;;5091884;28;20251;-79
2023/04/08 11:00:50;;;;;;;4.35;2.92;;;;;;;;;;5091063;28;20296;-79
2023/04/08 11:03:17;;;;;;;4.05;2.70;;;;;;;;;;5092298;28;20248;-81
2023/04/08 11:05:44;;;;;;;4.45;2.10;;;;;;;;;;5092916;28;20679;-82
2023/04/08 11:08:13;;;;;;;2.47;1.70;;;;;;;;;;5092387;28;20727;-85
2023/04/08 11:10:40;;;;;;;2.85;2.10;;;;;;;;;;5100415;28;20190;-85
2023/04/08 11:13:08;;;;;;;3.22;2.35;;;;;;;;;;5107450;28;20632;-84
2023/04/08 11:15:36;;;;;;;3.55;2.20;;;;;;;;;;5111909;28;20208;-87
2023/04/08 11:18:03;;;;;;;5.25;2.80;;;;;;;;;;5115020;28;20198;-83
2023/04/08 11:20:31;;;;;;;4.22;2.13;;;;;;;;;;5112081;28;20212;-83
2023/04/08 11:22:58;;;;;;;2.63;2.00;;;;;;;;;;5103911;28;20292;-81
2023/04/08 11:25:26;;;;;;;2.67;1.75;;;;;;;;;;5133422;27;20228;-84
2023/04/08 11:27:54;;;;;;;2.22;1.88;;;;;;;;;;5112009;28;20316;-83
2023/04/08 11:30:22;;;;;;;2.70;1.95;;;;;;;;;;5109227;28;20233;-83
2023/04/08 11:32:50;;;;;;;3.10;1.77;;;;;;;;;;5100017;28;20194;-82
2023/04/08 11:35:18;;;;;;;3.22;2.20;;;;;;;;;;5105622;28;20294;-83
2023/04/08 11:37:46;;;;;;;3.42;2.08;;;;;;;;;;5112965;28;20217;-82
2023/04/08 11:40:13;;;;;;;2.25;1.90;;;;;;;;;;5114210;28;20229;-83
2023/04/08 11:42:42;;;;;;;3.05;2.50;;;;;;;;;;5126154;28;20284;-82
2023/04/08 11:45:12;;;;;;;3.10;1.95;;;;;;;;;;5100587;28;20218;-85
2023/04/08 11:47:40;;;;;;;2.72;2.00;;;;;;;;;;5109647;28;20703;-81
2023/04/08 11:50:08;;;;;;;2.90;1.55;;;;;;;;;;5114847;27;20198;-82
2023/04/08 11:52:41;;;;;;;2.70;1.90;;;;;;;;;;5114857;28;20297;-82
2023/04/08 11:55:09;;;;;;;3.22;2.17;;;;;;;;;;5111354;28;20312;-82
2023/04/08 11:57:36;;;;;;;2.90;1.92;;;;;;;;;;5111351;28;20212;-83
2023/04/08 12:00:06;;;;;;;2.95;2.28;;;;;;;;;;5106179;28;20691;-82
2023/04/08 12:02:33;;;;;;;4.07;2.10;;;;;;;;;;5104963;28;20200;-84
2023/04/08 12:05:01;;;;;;;3.15;1.40;;;;;;;;;;5108328;28;20229;-84
2023/04/08 12:07:29;;;;;;;2.83;1.95;;;;;;;;;;5111102;28;20190;-82
2023/04/08 12:09:56;;;;;;;3.28;2.05;;;;;;;;;;5095750;28;20271;-83
2023/04/08 12:12:23;;;;;;;3.80;1.88;;;;;;;;;;5109913;28;20251;-80
2023/04/08 12:14:50;;;;;;;4.50;2.42;;;;;;;;;;5114568;27;20236;-81
2023/04/08 12:17:19;;;;;;;4.05;2.50;;;;;;;;;;5113574;28;20293;-81
2023/04/08 12:19:46;;;;;;;2.80;2.35;;;;;;;;;;5114799;28;20202;-81
2023/04/08 12:22:13;;;;;;;3.72;2.38;;;;;;;;;;5114539;28;20196;-81
2023/04/08 12:24:40;;;;;;;3.13;2.08;;;;;;;;;;5114065;28;20288;-81
2023/04/08 12:27:07;;;;;;;3.13;2.30;;;;;;;;;;5114023;28;20716;-81
2023/04/08 12:29:35;;;;;;;4.25;2.45;;;;;;;;;;5113923;28;20663;-80
2023/04/08 12:32:03;;;;;;;4.15;2.90;;;;;;;;;;5114268;27;20231;-80
2023/04/08 12:34:31;;;;;;;4.00;2.50;;;;;;;;;;5113766;28;20610;-81
2023/04/08 12:36:58;;;;;;;2.47;1.70;;;;;;;;;;5113824;28;20292;-80
2023/04/08 12:39:27;;;;;;;2.67;1.88;;;;;;;;;;5114214;28;20229;-81
2023/04/08 12:41:55;;;;;;;4.15;1.52;;;;;;;;;;5113696;27;20233;-81
2023/04/08 12:44:22;;;;;;;3.55;1.83;;;;;;;;;;5112628;27;20197;-81
2023/04/08 12:46:50;;;;;;;3.38;2.25;;;;;;;;;;5110958;28;20282;-80
2023/04/08 12:49:17;;;;;;;2.65;2.10;;;;;;;;;;5102793;28;20222;-81
2023/04/08 12:51:45;;;;;;;3.25;1.77;;;;;;;;;;5110834;28;20652;-81
2023/04/08 12:54:13;;;;;;;3.47;1.67;;;;;;;;;;5102764;28;20288;-81
2023/04/08 12:56:42;;;;;;;2.75;1.52;;;;;;;;;;5112415;28;20280;-81
2023/04/08 12:59:09;;;;;;;3.25;1.52;;;;;;;;;;5113694;28;20345;-81
2023/04/08 13:01:36;;;;;;;2.78;1.95;;;;;;;;;;5112842;28;20243;-80
2023/04/08 13:04:04;;;;;;;3.13;2.10;;;;;;;;;;5112377;28;20224;-81
2023/04/08 13:06:31;;;;;;;5.07;2.10;;;;;;;;;;5093732;28;20199;-81
2023/04/08 13:09:00;;;;;;;2.78;1.42;;;;;;;;;;5093573;28;20603;-81
2023/04/08 13:11:27;;;;;;;2.88;1.90;;;;;;;;;;5109448;28;20204;-81
2023/04/08 13:13:54;;;;;;;2.40;1.80;;;;;;;;;;5112289;28;20232;-80
2023/04/08 13:16:22;;;;;;;3.03;1.80;;;;;;;;;;5111437;28;20719;-81
2023/04/08 13:18:49;;;;;;;2.72;2.05;;;;;;;;;;5106295;28;20226;-82
2023/04/08 13:21:16;;;;;;;3.13;1.90;;;;;;;;;;5098731;28;20198;-80
2023/04/08 13:23:45;;;;;;;4.95;2.45;;;;;;;;;;5112179;28;20292;-80
2023/04/08 13:26:14;;;;;;;2.75;1.80;;;;;;;;;;5109766;27;20236;-81
2023/04/08 13:28:41;;;;;;;2.70;1.75;;;;;;;;;;5122094;27;20324;-80
2023/04/08 13:31:08;;;;;;;3.20;2.10;;;;;;;;;;5105337;27;20259;-79
2023/04/08 13:33:36;;;;;;;3.20;1.70;;;;;;;;;;5108723;28;20290;-81
2023/04/08 13:36:03;;;;;;;2.22;1.42;;;;;;;;;;5098451;28;20275;-80
2023/04/08 13:38:31;;;;;;;2.97;1.70;;;;;;;;;;5112769;27;20225;-81
2023/04/08 13:40:58;;;;;;;3.65;1.80;;;;;;;;;;5113025;27;20244;-80
2023/04/08 13:43:27;;;;;;;1.92;1.35;;;;;;;;;;5112478;27;20281;-80
2023/04/08 13:45:54;;;;;;;3.40;2.20;;;;;;;;;;5111525;28;20198;-80
2023/04/08 13:48:21;;;;;;;3.05;2.15;;;;;;;;;;5112684;28;20288;-79
2023/04/08 13:50:49;;;;;;;3.63;1.85;;;;;;;;;;5107897;27;20254;-81
2023/04/08 13:53:16;;;;;;;2.00;1.60;;;;;;;;;;5110878;28;20395;-80
2023/04/08 13:55:43;;;;;;;2.50;1.63;;;;;;;;;;5111020;28;20217;-80
2023/04/08 13:58:10;;;;;;;2.38;1.50;;;;;;;;;;5112505;27;20197;-80
2023/04/08 14:00:39;;;;;;;4.20;1.60;;;;;;;;;;5111176;28;20288;-80
2023/04/08 14:03:06;;;;;;;3.15;1.73;;;;;;;;;;5111905;28;20218;-81
2023/04/08 14:05:33;;;;;;;2.75;1.60;;;;;;;;;;5108797;28;20225;-79
2023/04/08 14:08:00;;;;;;;3.05;1.70;;;;;;;;;;5109239;28;21130;-79
2023/04/08 14:10:27;;;;;;;14.38;2.20;;;;;;;;;;5112967;28;20213;-81
2023/04/08 14:12:55;;;;;;;1.98;1.40;;;;;;;;;;5111933;28;20256;-79
2023/04/08 14:15:22;;;;;;;3.35;1.80;;;;;;;;;;5113874;27;20270;-80
2023/04/08 14:17:51;;;;;;;2.83;1.80;;;;;;;;;;5115087;28;20717;-80
2023/04/08 14:20:18;;;;;;;2.28;1.50;;;;;;;;;;5115765;28;20195;-80
2023/04/08 14:22:45;;;;;;;2.20;1.40;;;;;;;;;;5111535;28;20635;-81
2023/04/08 14:25:12;;;;;;;2.05;1.35;;;;;;;;;;5111725;28;20193;-80
2023/04/08 14:27:40;;;;;;;2.95;1.40;;;;;;;;;;5111410;28;20198;-80
2023/04/08 14:30:08;;;;;;;2.40;1.48;;;;;;;;;;5111815;28;20225;-81
2023/04/08 14:32:35;;;;;;;2.70;1.60;;;;;;;;;;5109404;27;20233;-79
2023/04/08 14:35:04;;;;;;;1.90;1.52;;;;;;;;;;5110505;28;20280;-80
2023/04/08 14:37:33;;;;;;;2.35;1.70;;;;;;;;;;5112045;28;20189;-78
2023/04/08 14:40:00;;;;;;;1.85;1.60;;;;;;;;;;5111923;28;20228;-80
2023/04/08 14:42:27;;;;;;;3.72;1.73;;;;;;;;;;5110648;28;20194;-80